Time;durP1;ratioP1;P1;durP2;ratioP2;P2;SDS_P1;SDS_P2;PMS_P1;PMS_P2;Temp;Humidity;BMP_temperature;BMP_pressure;BME280_temperature;BME280_humidity;BME280_pressure;Samples;Min_cycle;Max_cycle;Signal;HPM_P1;HPM_P2
2023/12/04 00:01:18;;;;;;;6.20;3.88;;;;;;;24.06;29.04;99495.69;4993799;28;20026;-45
2023/12/04 00:03:43;;;;;;;6.20;3.90;;;;;;;24.06;28.96;99490.16;4990767;28;20088;-45
2023/12/04 00:06:10;;;;;;;6.07;3.58;;;;;;;24.05;29.04;99485.91;4989811;28;20014;-46
2023/12/04 00:08:36;;;;;;;6.87;3.50;;;;;;;24.04;28.92;99481.63;4988779;28;20022;-48
2023/12/04 00:11:01;;;;;;;6.30;4.00;;;;;;;24.07;28.85;99483.41;4985309;28;20457;-45
2023/12/04 00:13:26;;;;;;;6.07;3.70;;;;;;;24.04;28.94;99487.16;4990933;28;20025;-44
2023/12/04 00:15:52;;;;;;;5.65;3.30;;;;;;;24.04;28.75;99481.63;4995164;28;20033;-44
2023/12/04 00:18:17;;;;;;;5.72;3.53;;;;;;;24.02;29.01;99467.56;4989165;28;20022;-44
2023/12/04 00:20:42;;;;;;;5.53;3.40;;;;;;;24.02;28.86;99456.56;4987249;28;20048;-44
2023/12/04 00:23:08;;;;;;;5.45;3.35;;;;;;;24.04;28.87;99448.53;4987483;28;20035;-44
2023/12/04 00:25:33;;;;;;;6.15;3.55;;;;;;;24.04;28.83;99449.31;4987244;28;20035;-44
2023/12/04 00:27:58;;;;;;;5.80;3.53;;;;;;;24.03;28.90;99436.75;4991005;28;20032;-44
2023/12/04 00:30:24;;;;;;;5.72;3.45;;;;;;;24.07;28.79;99441.28;4992906;28;20217;-44
2023/12/04 00:32:49;;;;;;;5.70;3.47;;;;;;;24.05;28.79;99428.00;4988231;28;20035;-44
2023/12/04 00:35:14;;;;;;;5.82;3.33;;;;;;;24.03;28.92;99436.00;4987993;28;20023;-44
2023/12/04 00:37:40;;;;;;;5.70;3.42;;;;;;;24.02;28.87;99428.97;4992429;28;20034;-44
2023/12/04 00:40:08;;;;;;;5.10;3.00;;;;;;;24.05;28.77;99428.00;4990732;28;20023;-44
2023/12/04 00:42:33;;;;;;;5.50;3.15;;;;;;;24.04;28.86;99429.25;4994241;28;20018;-45
2023/12/04 00:44:58;;;;;;;5.55;3.30;;;;;;;24.04;28.79;99437.50;4991616;28;20536;-45
2023/12/04 00:47:24;;;;;;;5.80;3.22;;;;;;;24.04;28.88;99432.00;4989022;28;20140;-45
2023/12/04 00:49:49;;;;;;;5.13;2.97;;;;;;;24.01;28.85;99433.75;4989809;28;20040;-44
2023/12/04 00:52:14;;;;;;;5.03;2.95;;;;;;;24.01;28.74;99422.72;4993970;28;20026;-44
2023/12/04 00:54:42;;;;;;;5.60;3.00;;;;;;;24.02;28.84;99412.44;4993629;28;20639;-44
2023/12/04 00:57:08;;;;;;;5.25;3.00;;;;;;;24.01;28.80;99410.94;4997121;28;20421;-44
2023/12/04 00:59:33;;;;;;;5.93;3.15;;;;;;;24.00;28.85;99409.41;4986106;28;20019;-44
2023/12/04 01:01:58;;;;;;;5.15;2.72;;;;;;;24.01;28.73;99410.94;4990461;28;20386;-44
2023/12/04 01:04:24;;;;;;;5.20;2.90;;;;;;;24.03;28.74;99414.72;4990868;28;20022;-44
2023/12/04 01:06:49;;;;;;;4.70;2.60;;;;;;;24.04;28.74;99412.69;4987868;28;20036;-45
2023/12/04 01:09:15;;;;;;;5.38;3.00;;;;;;;24.01;28.67;99417.19;4985980;28;20466;-44
2023/12/04 01:11:40;;;;;;;4.90;2.72;;;;;;;24.00;28.79;99412.16;4985866;28;20035;-44
2023/12/04 01:14:06;;;;;;;5.25;3.00;;;;;;;24.00;28.75;99406.66;4990340;28;20019;-44
2023/12/04 01:16:31;;;;;;;4.97;2.75;;;;;;;24.04;28.67;99404.44;4993465;28;20461;-44
2023/12/04 01:18:56;;;;;;;4.85;2.60;;;;;;;24.01;28.76;99405.41;4992476;28;20034;-46
2023/12/04 01:21:22;;;;;;;5.30;2.90;;;;;;;24.01;28.67;99400.66;4994574;28;20577;-45
2023/12/04 01:23:47;;;;;;;4.88;2.58;;;;;;;23.99;28.76;99402.38;4988275;28;20038;-45
2023/12/04 01:26:12;;;;;;;4.93;2.50;;;;;;;23.99;28.79;99399.63;4993388;28;20377;-44
2023/12/04 01:28:38;;;;;;;4.78;2.50;;;;;;;23.99;28.75;99396.88;4996477;28;20477;-44
2023/12/04 01:31:04;;;;;;;4.70;2.50;;;;;;;23.99;28.78;99397.63;4999911;28;20026;-45
2023/12/04 01:33:30;;;;;;;4.85;2.35;;;;;;;23.98;28.69;99393.38;4997118;28;20448;-44
2023/12/04 01:35:55;;;;;;;4.80;2.40;;;;;;;24.00;28.62;99388.13;4994088;28;20052;-44
2023/12/04 01:38:20;;;;;;;4.50;2.47;;;;;;;23.99;28.69;99391.38;4988760;28;20474;-46
2023/12/04 01:40:46;;;;;;;4.40;2.40;;;;;;;23.99;28.63;99388.59;4995834;28;20060;-45
2023/12/04 01:43:11;;;;;;;4.95;2.47;;;;;;;24.00;28.79;99393.63;4998346;28;20466;-47
2023/12/04 01:45:36;;;;;;;4.30;2.10;;;;;;;23.95;28.81;99388.09;4999759;28;20033;-44
2023/12/04 01:48:02;;;;;;;4.90;2.50;;;;;;;23.95;28.65;99386.09;4988251;28;20026;-44
2023/12/04 01:50:28;;;;;;;4.63;2.45;;;;;;;23.96;28.82;99384.84;4992456;28;20562;-44
2023/12/04 01:52:53;;;;;;;4.45;2.33;;;;;;;23.95;28.70;99379.84;4992656;28;20034;-45
2023/12/04 01:55:18;;;;;;;5.65;2.20;;;;;;;23.94;28.78;99375.56;4991535;28;20033;-48
2023/12/04 01:57:44;;;;;;;4.55;2.20;;;;;;;23.94;28.82;99381.09;4991259;28;20037;-45
2023/12/04 02:00:11;;;;;;;4.15;2.25;;;;;;;23.94;28.67;99364.53;4987456;28;20022;-44
2023/12/04 02:02:40;;;;;;;4.22;2.20;;;;;;;23.95;28.81;99363.28;4989012;28;20044;-44
2023/12/04 02:05:07;;;;;;;4.57;2.17;;;;;;;23.94;28.76;99361.78;5000340;28;20615;-44
2023/12/04 02:07:32;;;;;;;4.30;2.13;;;;;;;23.94;28.67;99351.50;4980994;28;20497;-44
2023/12/04 02:09:58;;;;;;;3.90;1.98;;;;;;;23.94;28.81;99357.03;4993346;28;20101;-44
2023/12/04 02:12:24;;;;;;;4.45;2.15;;;;;;;23.94;28.78;99350.75;4984441;28;20656;-44
2023/12/04 02:14:50;;;;;;;4.45;2.17;;;;;;;23.94;28.63;99345.25;4988958;28;20033;-44
2023/12/04 02:17:15;;;;;;;4.15;2.15;;;;;;;23.94;28.72;99345.25;4999834;28;20110;-43
2023/12/04 02:19:40;;;;;;;4.40;2.25;;;;;;;23.96;28.64;99348.25;4992813;28;20398;-44
2023/12/04 02:22:06;;;;;;;4.57;2.22;;;;;;;23.96;28.62;99359.28;4989161;28;20022;-45
2023/12/04 02:24:34;;;;;;;4.00;2.00;;;;;;;23.95;28.57;99344.75;4986112;28;20496;-43
2023/12/04 02:27:17;;;;;;;5.03;2.00;;;;;;;23.94;28.67;99331.47;4984820;28;20431;-43
2023/12/04 02:29:47;;;;;;;4.72;2.10;;;;;;;23.95;28.59;99324.69;4978098;28;20100;-45
2023/12/04 02:32:15;;;;;;;3.95;2.10;;;;;;;23.94;28.47;99331.47;4993932;28;20096;-46
2023/12/04 02:34:40;;;;;;;4.32;2.22;;;;;;;23.95;28.55;99330.22;4991816;28;20076;-45
2023/12/04 02:37:06;;;;;;;4.18;2.00;;;;;;;23.92;28.56;99325.69;4987232;28;20023;-43
2023/12/04 02:39:31;;;;;;;4.10;1.90;;;;;;;23.91;28.58;99316.66;4986061;28;20015;-43
2023/12/04 02:41:56;;;;;;;4.20;2.00;;;;;;;23.90;28.63;99319.91;4986579;28;20038;-43
2023/12/04 02:44:22;;;;;;;3.97;1.98;;;;;;;23.91;28.57;99315.91;4996737;28;20630;-43
2023/12/04 02:46:47;;;;;;;4.28;2.10;;;;;;;23.90;28.70;99328.19;4992367;28;20052;-43
2023/12/04 02:49:12;;;;;;;4.38;2.08;;;;;;;23.89;28.65;99315.63;4985404;28;20022;-43
2023/12/04 02:51:41;;;;;;;3.88;1.98;;;;;;;23.88;28.74;99319.66;4990201;28;20030;-43
2023/12/04 02:54:06;;;;;;;3.80;1.90;;;;;;;23.87;28.78;99315.38;4991400;28;20026;-43
2023/12/04 02:56:32;;;;;;;4.25;2.00;;;;;;;23.89;28.70;99315.63;4991884;28;20026;-43
2023/12/04 02:58:57;;;;;;;3.80;1.80;;;;;;;23.90;28.80;99314.41;4990355;28;20217;-44
2023/12/04 03:01:22;;;;;;;4.13;1.85;;;;;;;23.89;28.71;99315.63;4993191;28;20377;-43
2023/12/04 03:03:48;;;;;;;3.88;1.90;;;;;;;23.89;28.79;99315.63;4991491;28;20077;-43
2023/12/04 03:06:15;;;;;;;4.20;1.67;;;;;;;23.89;28.73;99315.63;4988914;28;20030;-44
2023/12/04 03:08:41;;;;;;;3.75;1.90;;;;;;;23.89;28.72;99312.88;4990046;28;20537;-45
2023/12/04 03:11:07;;;;;;;4.10;2.00;;;;;;;23.89;28.71;99304.63;4996541;28;20102;-44
2023/12/04 03:13:32;;;;;;;3.95;1.80;;;;;;;23.91;28.65;99311.16;4993714;28;20036;-43
2023/12/04 03:15:57;;;;;;;3.70;1.70;;;;;;;23.92;28.66;99306.38;4986813;28;20402;-44
2023/12/04 03:18:25;;;;;;;3.75;1.73;;;;;;;23.91;28.78;99305.63;4992108;28;20515;-46
2023/12/04 03:20:50;;;;;;;4.13;1.83;;;;;;;23.89;28.78;99308.13;4991389;28;20026;-44
2023/12/04 03:23:15;;;;;;;3.05;1.60;;;;;;;23.94;28.70;99304.66;4996132;28;20037;-44
2023/12/04 03:25:41;;;;;;;3.67;1.70;;;;;;;23.95;28.58;99302.66;4995436;28;20514;-44
2023/12/04 03:28:06;;;;;;;3.83;1.80;;;;;;;23.96;28.65;99302.16;4990264;28;20057;-44
2023/12/04 03:30:31;;;;;;;3.92;1.80;;;;;;;24.00;28.76;99301.91;4991704;28;20026;-44
2023/12/04 03:32:57;;;;;;;3.60;1.70;;;;;;;24.01;28.66;99309.69;4996680;28;20022;-45
2023/12/04 03:35:22;;;;;;;3.35;1.60;;;;;;;23.98;28.71;99302.38;4996532;28;20021;-44
2023/12/04 03:37:49;;;;;;;3.05;1.55;;;;;;;24.00;28.73;99307.41;4997369;28;20060;-44
2023/12/04 03:40:15;;;;;;;3.53;1.60;;;;;;;24.04;28.62;99296.91;4992850;28;20033;-45
2023/12/04 03:42:40;;;;;;;3.40;1.58;;;;;;;24.05;28.64;99287.38;4996409;28;20636;-44
2023/12/04 03:45:06;;;;;;;3.85;1.70;;;;;;;24.02;28.63;99296.66;4981177;28;20693;-48
2023/12/04 03:47:32;;;;;;;4.10;1.95;;;;;;;24.04;28.83;99291.41;4991261;28;20060;-45
2023/12/04 03:49:57;;;;;;;4.07;1.90;;;;;;;24.10;28.76;99291.44;4989035;28;21201;-44
2023/12/04 03:52:22;;;;;;;3.00;1.60;;;;;;;24.05;28.93;99284.63;4986296;28;20022;-45
2023/12/04 03:54:48;;;;;;;4.00;1.80;;;;;;;24.10;28.72;99275.63;4989822;28;20032;-45
2023/12/04 03:57:13;;;;;;;3.60;1.70;;;;;;;24.10;28.70;99274.88;4992834;28;20018;-44
2023/12/04 03:59:39;;;;;;;3.20;1.55;;;;;;;24.09;28.79;99274.13;4991976;28;20026;-44
2023/12/04 04:02:04;;;;;;;3.70;1.60;;;;;;;24.09;28.76;99267.84;4992721;28;20474;-44
2023/12/04 04:04:29;;;;;;;3.33;1.52;;;;;;;24.14;28.80;99258.84;4986895;28;20044;-44
2023/12/04 04:06:55;;;;;;;3.67;1.60;;;;;;;24.15;28.69;99249.34;4989926;28;20030;-44
2023/12/04 04:09:20;;;;;;;3.15;1.48;;;;;;;24.16;28.99;99251.59;4993034;28;20038;-46
2023/12/04 04:11:46;;;;;;;3.90;1.70;;;;;;;24.17;28.76;99246.84;4995162;28;20018;-45
2023/12/04 04:14:11;;;;;;;3.42;1.70;;;;;;;24.19;28.79;99238.78;4986762;28;20022;-45
2023/12/04 04:16:36;;;;;;;3.17;1.60;;;;;;;24.22;28.66;99237.81;4987348;28;20036;-45
2023/12/04 04:19:02;;;;;;;2.85;1.40;;;;;;;24.26;28.72;99236.34;4988490;28;20386;-46
2023/12/04 04:21:27;;;;;;;3.85;1.80;;;;;;;24.31;28.75;99232.84;4993496;28;20017;-45
2023/12/04 04:23:53;;;;;;;3.50;1.65;;;;;;;24.31;28.69;99230.09;4988519;28;20033;-44
2023/12/04 04:26:19;;;;;;;4.07;1.60;;;;;;;24.30;28.75;99225.81;4987900;28;20518;-44
2023/12/04 04:28:44;;;;;;;2.88;1.45;;;;;;;24.32;28.75;99234.34;4987115;28;20054;-44
2023/12/04 04:31:09;;;;;;;3.60;1.58;;;;;;;24.35;28.58;99227.84;4987079;28;20026;-46
2023/12/04 04:33:35;;;;;;;3.22;1.50;;;;;;;24.36;28.74;99225.84;4991141;28;20093;-44
2023/12/04 04:36:00;;;;;;;3.30;1.50;;;;;;;24.35;28.75;99222.34;4991649;28;20018;-45
2023/12/04 04:38:25;;;;;;;3.45;1.60;;;;;;;24.36;28.78;99201.78;4985863;28;20018;-45
2023/12/04 04:40:52;;;;;;;3.00;1.40;;;;;;;24.36;28.73;99206.53;4988915;28;20026;-45
2023/12/04 04:43:18;;;;;;;3.10;1.60;;;;;;;24.36;28.80;99198.25;4986129;28;20046;-44
2023/12/04 04:45:43;;;;;;;3.10;1.45;;;;;;;24.35;28.83;99203.03;4994975;28;20529;-44
2023/12/04 04:48:08;;;;;;;3.10;1.50;;;;;;;24.35;28.83;99208.53;4992604;28;20053;-44
2023/12/04 04:50:34;;;;;;;3.03;1.55;;;;;;;24.37;28.94;99208.03;4995165;28;20030;-44
2023/12/04 04:52:59;;;;;;;2.90;1.40;;;;;;;24.39;28.91;99192.47;4987981;28;20645;-44
2023/12/04 04:55:25;;;;;;;2.97;1.40;;;;;;;24.43;28.95;99197.00;4989316;28;20117;-44
2023/12/04 04:57:50;;;;;;;3.15;1.50;;;;;;;24.40;28.91;99190.47;4993239;28;20026;-44
2023/12/04 05:00:16;;;;;;;2.65;1.40;;;;;;;24.44;28.90;99201.25;4997113;28;20022;-45
2023/12/04 05:02:41;;;;;;;2.42;1.20;;;;;;;24.46;28.88;99198.75;4994476;28;20045;-44
2023/12/04 05:05:07;;;;;;;2.80;1.40;;;;;;;24.44;28.85;99182.69;4990777;28;20037;-44
2023/12/04 05:07:32;;;;;;;2.83;1.40;;;;;;;24.46;28.85;99184.97;4987659;28;20034;-44
2023/12/04 05:09:57;;;;;;;2.83;1.40;;;;;;;24.49;28.88;99189.47;4995017;28;20032;-46
2023/12/04 05:12:23;;;;;;;3.17;1.50;;;;;;;24.49;28.88;99186.72;4994877;28;20481;-44
2023/12/04 05:14:48;;;;;;;3.63;1.38;;;;;;;24.46;28.83;99191.22;4995407;28;20033;-45
2023/12/04 05:17:13;;;;;;;2.78;1.30;;;;;;;24.49;28.82;99183.97;4993807;28;20027;-45
2023/12/04 05:19:39;;;;;;;2.50;1.30;;;;;;;24.50;28.90;99177.19;4991130;28;20080;-45
2023/12/04 05:22:04;;;;;;;3.15;1.40;;;;;;;24.47;29.01;99173.44;4989696;28;20396;-44
2023/12/04 05:24:29;;;;;;;2.72;1.30;;;;;;;24.47;28.94;99169.91;4993582;28;20033;-44
2023/12/04 05:26:55;;;;;;;3.10;1.33;;;;;;;24.50;28.88;99168.91;4998679;28;20080;-44
2023/12/04 05:29:20;;;;;;;2.83;1.30;;;;;;;24.48;29.00;99168.66;4990980;28;20018;-43
2023/12/04 05:31:46;;;;;;;2.17;1.17;;;;;;;24.51;28.89;99160.16;4986640;28;20397;-44
2023/12/04 05:34:12;;;;;;;2.45;1.30;;;;;;;24.51;29.00;99167.66;4988712;28;20402;-44
2023/12/04 05:36:37;;;;;;;2.50;1.20;;;;;;;24.50;28.99;99166.16;4992506;28;20030;-43
2023/12/04 05:39:04;;;;;;;2.95;1.35;;;;;;;24.46;29.07;99168.41;4996320;28;20030;-44
2023/12/04 05:41:29;;;;;;;2.60;1.30;;;;;;;24.42;28.90;99163.13;4998896;28;20041;-46
2023/12/04 05:43:55;;;;;;;2.78;1.38;;;;;;;24.43;28.97;99158.38;4993187;28;20026;-44
2023/12/04 05:46:20;;;;;;;2.65;1.30;;;;;;;24.42;28.97;99145.84;4989230;28;20478;-45
2023/12/04 05:48:45;;;;;;;3.25;1.50;;;;;;;24.43;28.98;99147.34;4994342;28;20034;-44
2023/12/04 05:51:11;;;;;;;2.90;1.40;;;;;;;24.44;28.89;99148.84;4991582;28;20018;-44
2023/12/04 05:53:36;;;;;;;3.08;1.40;;;;;;;24.44;28.77;99140.56;4993488;28;20034;-45
2023/12/04 05:56:02;;;;;;;2.78;1.40;;;;;;;24.42;28.86;99129.28;4989065;28;20038;-44
2023/12/04 05:58:27;;;;;;;3.47;1.50;;;;;;;24.43;28.74;99117.00;4990335;28;20062;-43
2023/12/04 06:00:53;;;;;;;2.63;1.35;;;;;;;24.48;28.69;99116.25;4995607;28;20034;-43
2023/12/04 06:03:18;;;;;;;2.95;1.30;;;;;;;24.47;28.64;99104.47;4995220;28;20034;-43
2023/12/04 06:05:43;;;;;;;2.47;1.40;;;;;;;24.44;28.77;99094.44;4992732;28;20024;-43
2023/12/04 06:08:09;;;;;;;4.03;1.60;;;;;;;24.43;28.47;99097.69;4990366;28;20030;-43
2023/12/04 06:10:35;;;;;;;4.50;1.58;;;;;;;24.41;28.46;99094.69;4990645;28;20117;-45
2023/12/04 06:13:00;;;;;;;2.90;1.50;;;;;;;24.37;28.34;99095.72;4997741;28;20076;-44
2023/12/04 06:15:26;;;;;;;3.20;1.55;;;;;;;24.33;28.51;99084.16;4994428;28;20023;-43
2023/12/04 06:17:51;;;;;;;3.20;1.42;;;;;;;24.31;28.58;99088.69;4997860;28;20033;-43
2023/12/04 06:20:16;;;;;;;3.60;1.50;;;;;;;24.31;28.67;99083.91;4995093;28;20034;-44
2023/12/04 06:22:42;;;;;;;3.08;1.33;;;;;;;24.29;28.51;99077.41;5000505;28;20026;-43
2023/12/04 06:25:08;;;;;;;3.17;1.50;;;;;;;24.28;28.47;99065.59;4992356;28;20030;-43
2023/12/04 06:27:34;;;;;;;3.35;1.50;;;;;;;24.26;28.29;99076.38;4994186;28;20026;-43
2023/12/04 06:29:59;;;;;;;3.03;1.50;;;;;;;24.27;28.33;99072.38;4989974;28;20102;-44
2023/12/04 06:32:25;;;;;;;3.63;1.50;;;;;;;24.26;28.39;99079.16;4990957;28;20058;-44
2023/12/04 06:34:51;;;;;;;2.70;1.33;;;;;;;24.26;28.25;99086.66;4987276;28;20045;-44
2023/12/04 06:37:16;;;;;;;3.25;1.60;;;;;;;24.22;28.28;99095.16;4993960;28;20034;-43
2023/12/04 06:39:42;;;;;;;2.83;1.40;;;;;;;24.21;28.41;99095.66;4996574;28;20038;-42
2023/12/04 06:42:08;;;;;;;3.22;1.42;;;;;;;24.22;28.46;99088.88;4978255;28;20030;-44
2023/12/04 06:44:34;;;;;;;3.90;1.60;;;;;;;24.17;28.38;99104.19;4988858;28;20014;-44
2023/12/04 06:47:03;;;;;;;8.13;1.95;;;;;;;24.16;28.01;99113.72;4989708;28;20583;-48
2023/12/04 06:49:30;;;;;;;7.38;1.85;;;;;;;24.20;28.12;99114.22;4988407;28;20505;-45
2023/12/04 06:51:55;;;;;;;3.88;1.80;;;;;;;24.17;27.90;99117.25;4991487;28;20038;-44
2023/12/04 06:54:21;;;;;;;4.00;1.70;;;;;;;24.16;27.98;99119.25;4995849;28;20053;-44
2023/12/04 06:56:46;;;;;;;4.65;1.95;;;;;;;24.11;27.79;99122.75;4991389;28;20404;-44
2023/12/04 06:59:11;;;;;;;5.00;1.65;;;;;;;24.16;28.15;99124.75;4981920;28;20031;-42
2023/12/04 07:01:37;;;;;;;7.03;1.77;;;;;;;24.22;28.08;99139.28;4986309;28;20113;-44
2023/12/04 07:04:09;;;;;;;6.85;1.80;;;;;;;24.18;28.11;99116.72;4989559;28;20026;-41
2023/12/04 07:06:35;;;;;;;8.27;1.95;;;;;;;24.18;28.37;99132.53;4991438;28;20033;-44
2023/12/04 07:09:00;;;;;;;4.80;1.70;;;;;;;24.16;28.11;99124.00;4991323;28;20113;-48
2023/12/04 07:11:26;;;;;;;7.05;2.00;;;;;;;24.14;28.46;99118.97;4996164;28;20046;-41
2023/12/04 07:13:51;;;;;;;4.95;1.90;;;;;;;24.10;28.37;99093.66;4987611;28;20030;-46
2023/12/04 07:16:17;;;;;;;4.43;1.90;;;;;;;24.10;27.94;99103.94;4989231;28;20499;-43
2023/12/04 07:18:42;;;;;;;4.63;2.00;;;;;;;24.03;28.09;99088.63;4991154;28;20030;-44
2023/12/04 07:21:08;;;;;;;4.18;1.90;;;;;;;24.03;27.72;99074.84;4987140;28;20042;-45
2023/12/04 07:23:33;;;;;;;7.90;2.20;;;;;;;24.03;27.97;99077.59;4987037;28;20592;-49
2023/12/04 07:25:58;;;;;;;5.65;2.50;;;;;;;24.03;27.72;99075.59;4990753;28;20042;-44
2023/12/04 07:28:24;;;;;;;5.03;2.08;;;;;;;24.06;27.77;99073.84;4990492;28;20033;-43
2023/12/04 07:30:49;;;;;;;4.88;2.20;;;;;;;24.11;27.74;99051.06;4993919;28;20045;-45
2023/12/04 07:33:14;;;;;;;6.25;2.00;;;;;;;24.11;27.83;99048.28;4991575;28;20018;-43
2023/12/04 07:35:40;;;;;;;4.88;2.20;;;;;;;24.15;27.65;99046.03;4992207;28;20023;-46
2023/12/04 07:38:05;;;;;;;4.40;2.03;;;;;;;24.11;27.60;99034.50;4989624;28;20030;-42
2023/12/04 07:40:32;;;;;;;5.70;2.17;;;;;;;24.14;27.68;99041.03;4989652;28;20027;-44
2023/12/04 07:42:57;;;;;;;5.18;2.15;;;;;;;24.11;27.55;99029.00;4996545;28;20363;-45
2023/12/04 07:45:23;;;;;;;5.07;1.95;;;;;;;24.16;27.75;99033.75;4988046;28;20113;-45
2023/12/04 07:47:50;;;;;;;7.00;2.10;;;;;;;24.15;27.78;99029.50;4984791;28;20030;-46
2023/12/04 07:50:15;;;;;;;4.40;1.98;;;;;;;24.16;27.77;99031.00;4982990;28;20114;-46
2023/12/04 07:52:41;;;;;;;8.73;2.47;;;;;;;24.16;27.85;99025.50;4988109;28;20023;-48
2023/12/04 07:55:06;;;;;;;4.55;2.15;;;;;;;24.15;27.92;99012.97;4990683;28;20057;-43
2023/12/04 07:57:32;;;;;;;4.93;2.20;;;;;;;24.17;27.55;99015.97;4992191;28;20050;-44
2023/12/04 07:59:58;;;;;;;6.43;2.20;;;;;;;24.22;27.98;99008.91;4988260;28;20049;-44
2023/12/04 08:02:23;;;;;;;7.63;2.35;;;;;;;24.21;27.78;99008.16;4985658;28;20148;-45
2023/12/04 08:04:48;;;;;;;6.53;2.60;;;;;;;24.17;27.77;98996.66;4988681;28;20070;-45
2023/12/04 08:07:14;;;;;;;5.38;2.25;;;;;;;24.17;27.90;98996.66;4990510;28;20088;-46
2023/12/04 08:09:41;;;;;;;10.77;2.80;;;;;;;24.46;27.61;99003.66;4989448;28;20030;-46
2023/12/04 08:12:06;;;;;;;9.35;2.67;;;;;;;24.39;27.69;99013.19;4989611;28;20034;-45
2023/12/04 08:14:32;;;;;;;10.57;2.40;;;;;;;24.26;27.68;99012.97;4985342;28;20106;-44
2023/12/04 08:16:58;;;;;;;8.20;2.58;;;;;;;24.21;27.42;99018.44;4986823;28;20025;-44
2023/12/04 08:19:23;;;;;;;5.07;2.70;;;;;;;24.18;27.30;99030.50;4993384;28;20081;-43
2023/12/04 08:21:49;;;;;;;5.40;2.50;;;;;;;24.10;27.19;99049.56;4991175;28;20031;-44
2023/12/04 08:24:16;;;;;;;6.10;2.47;;;;;;;24.05;27.47;99048.28;4991839;28;20084;-43
2023/12/04 08:26:41;;;;;;;4.82;2.28;;;;;;;24.08;27.26;99054.81;4986681;28;20030;-43
2023/12/04 08:29:07;;;;;;;4.53;2.28;;;;;;;24.10;27.22;99049.56;4989821;28;20519;-43
2023/12/04 08:31:32;;;;;;;7.13;2.30;;;;;;;24.11;27.16;99040.03;4990045;28;20030;-43
2023/12/04 08:33:58;;;;;;;7.82;2.30;;;;;;;24.14;27.09;99041.03;4995986;28;20083;-45
2023/12/04 08:36:23;;;;;;;5.00;2.70;;;;;;;24.14;27.15;99049.31;4995781;28;20033;-44
2023/12/04 08:38:48;;;;;;;5.13;2.60;;;;;;;24.09;27.18;99045.28;4992789;28;20643;-44
2023/12/04 08:41:14;;;;;;;5.32;2.50;;;;;;;24.08;27.14;99041.03;4993268;28;20034;-43
2023/12/04 08:43:39;;;;;;;5.50;2.72;;;;;;;24.05;27.13;99053.81;4997992;28;20025;-43
2023/12/04 08:46:04;;;;;;;5.88;2.50;;;;;;;24.07;27.40;99049.78;4994908;28;20440;-43
2023/12/04 08:48:30;;;;;;;5.15;2.75;;;;;;;24.01;27.22;99039.50;5003960;28;20041;-43
2023/12/04 08:50:56;;;;;;;5.65;2.70;;;;;;;24.03;27.29;99052.78;4992800;28;20036;-44
2023/12/04 08:53:21;;;;;;;5.38;2.92;;;;;;;23.99;27.17;99050.28;4990515;28;20642;-43
2023/12/04 08:55:47;;;;;;;5.63;3.08;;;;;;;24.01;27.16;99063.56;4997060;28;20521;-44
2023/12/04 08:58:12;;;;;;;4.93;2.75;;;;;;;23.97;27.48;99063.09;4996670;28;20033;-43
2023/12/04 09:00:42;;;;;;;14.70;3.00;;;;;;;24.05;27.59;99072.34;4998584;28;20018;-43
2023/12/04 09:03:08;;;;;;;11.60;3.22;;;;;;;24.05;27.39;99084.13;4998710;28;20474;-44
2023/12/04 09:05:33;;;;;;;8.82;3.03;;;;;;;24.00;27.45;99078.59;4991681;28;20032;-43
2023/12/04 09:08:00;;;;;;;12.48;3.33;;;;;;;24.02;27.25;99071.34;4998986;28;20477;-44
2023/12/04 09:10:25;;;;;;;7.03;3.40;;;;;;;24.04;27.22;99043.28;4992037;28;20069;-44
2023/12/04 09:12:50;;;;;;;5.35;3.28;;;;;;;24.06;27.30;99024.22;4990506;28;20386;-43
2023/12/04 09:15:16;;;;;;;5.78;3.17;;;;;;;24.03;27.32;99008.69;4986830;28;20022;-42
2023/12/04 09:17:41;;;;;;;5.78;3.30;;;;;;;24.01;27.25;99011.94;4987797;28;20019;-42
2023/12/04 09:20:07;;;;;;;7.03;3.83;;;;;;;24.02;27.44;99032.00;4998532;28;20371;-43
2023/12/04 09:22:32;;;;;;;5.57;3.20;;;;;;;24.06;27.32;99024.22;4991001;28;20104;-43
2023/12/04 09:24:57;;;;;;;8.13;3.63;;;;;;;24.09;27.45;99017.72;4994053;28;20026;-43
2023/12/04 09:27:23;;;;;;;6.50;3.42;;;;;;;24.05;27.18;99012.44;4985877;28;20037;-44
2023/12/04 09:29:48;;;;;;;6.35;3.30;;;;;;;24.08;27.26;99016.22;4986598;28;20026;-43
2023/12/04 09:32:13;;;;;;;8.07;3.40;;;;;;;24.05;27.32;99014.44;4993268;28;20029;-43
2023/12/04 09:34:39;;;;;;;6.50;3.60;;;;;;;24.06;27.37;99013.19;5001306;28;20034;-43
2023/12/04 09:37:04;;;;;;;6.07;3.83;;;;;;;24.09;27.21;99017.72;4995186;28;20033;-44
2023/12/04 09:39:29;;;;;;;7.28;4.90;;;;;;;24.10;27.10;99001.94;4988919;28;20022;-43
2023/12/04 09:41:55;;;;;;;7.32;5.00;;;;;;;24.09;27.31;98979.13;4989676;28;20034;-44
2023/12/04 09:44:22;;;;;;;7.75;4.47;;;;;;;24.15;27.34;98968.09;4976320;28;20068;-43
2023/12/04 09:46:47;;;;;;;7.07;4.70;;;;;;;24.09;27.29;98964.59;4991135;28;20076;-43
2023/12/04 09:49:12;;;;;;;7.93;4.80;;;;;;;24.09;27.31;98973.59;4981348;28;20429;-44
2023/12/04 09:51:38;;;;;;;8.85;4.78;;;;;;;24.08;27.12;98987.88;4978357;28;20036;-44
2023/12/04 09:54:04;;;;;;;7.07;4.65;;;;;;;24.08;27.26;98991.41;4984331;28;20034;-44
2023/12/04 09:56:29;;;;;;;6.40;4.47;;;;;;;24.08;27.39;99007.94;4991783;28;20027;-43
2023/12/04 09:58:58;;;;;;;6.90;4.68;;;;;;;24.08;27.50;99007.94;4995716;28;20389;-44
2023/12/04 10:01:23;;;;;;;6.50;3.85;;;;;;;23.76;27.66;99028.75;4995493;28;20029;-43
2023/12/04 10:03:49;;;;;;;6.32;4.00;;;;;;;23.74;27.81;99028.50;4993876;28;20022;-43
2023/12/04 10:06:17;;;;;;;7.50;4.30;;;;;;;23.74;27.80;99034.00;4980339;28;20022;-43
2023/12/04 10:08:44;;;;;;;6.50;3.97;;;;;;;23.65;28.03;99016.44;4991574;28;20027;-43
2023/12/04 10:11:10;;;;;;;9.48;3.83;;;;;;;23.78;27.77;99023.50;4996325;28;20022;-43
2023/12/04 10:13:35;;;;;;;5.82;3.95;;;;;;;23.85;27.82;99022.97;4998196;28;20034;-43
2023/12/04 10:16:00;;;;;;;7.05;4.18;;;;;;;23.89;27.51;99018.72;4997887;28;20022;-43
2023/12/04 10:18:27;;;;;;;6.72;4.20;;;;;;;23.89;27.58;99006.94;4988258;28;20449;-43
2023/12/04 10:20:56;;;;;;;6.93;4.13;;;;;;;23.92;27.58;99011.47;4992557;28;20017;-43
2023/12/04 10:23:21;;;;;;;6.80;3.92;;;;;;;23.93;27.44;98999.94;4994311;28;20492;-43
2023/12/04 10:25:48;;;;;;;7.18;4.40;;;;;;;23.94;27.60;98981.41;4999435;28;20034;-43
2023/12/04 10:28:15;;;;;;;7.57;4.00;;;;;;;23.93;27.44;98972.38;4989290;28;20018;-43
2023/12/04 10:30:40;;;;;;;7.13;3.90;;;;;;;23.93;27.70;98971.63;4986271;28;20553;-41
2023/12/04 10:33:07;;;;;;;6.85;3.63;;;;;;;24.02;27.78;98965.84;4993200;28;20026;-41
2023/12/04 10:35:36;;;;;;;8.50;4.10;;;;;;;24.00;27.77;98962.81;4990784;28;20018;-43
2023/12/04 10:38:02;;;;;;;10.32;4.18;;;;;;;23.98;27.65;98960.56;4992113;28;20022;-41
2023/12/04 10:40:28;;;;;;;6.25;3.72;;;;;;;23.96;27.72;98954.09;4990017;28;20014;-41
2023/12/04 10:43:15;;;;;;;5.93;3.70;;;;;;;23.83;27.83;98938.03;4990764;28;20052;-42
2023/12/04 10:45:41;;;;;;;6.70;3.97;;;;;;;23.86;27.91;98942.56;4989949;28;20486;-41
2023/12/04 10:48:07;;;;;;;7.20;4.10;;;;;;;23.89;28.04;98947.06;4992437;28;20062;-42
2023/12/04 10:50:37;;;;;;;7.50;4.20;;;;;;;24.00;27.99;98929.75;4985682;28;20510;-41
2023/12/04 10:53:04;;;;;;;6.53;3.80;;;;;;;24.04;28.13;98924.72;4990880;28;20022;-41
2023/12/04 10:55:30;;;;;;;7.25;3.83;;;;;;;24.10;28.28;98922.72;4987247;28;20129;-42
2023/12/04 10:57:55;;;;;;;9.95;4.50;;;;;;;24.16;28.25;98917.97;4988744;28;20129;-43
2023/12/04 11:00:21;;;;;;;6.60;4.05;;;;;;;24.18;28.33;98909.91;4993200;28;20018;-43
2023/12/04 11:02:48;;;;;;;6.75;4.15;;;;;;;24.22;28.27;98902.13;4994029;28;20118;-46
2023/12/04 11:05:17;;;;;;;9.35;4.25;;;;;;;24.22;28.35;98885.59;4981788;28;20547;-46
2023/12/04 11:07:54;;;;;;;7.53;4.60;;;;;;;24.37;28.36;98868.78;4988079;28;20033;-46
2023/12/04 11:10:25;;;;;;;8.27;4.05;;;;;;;24.35;28.24;98860.25;4989577;28;20026;-43
2023/12/04 11:12:57;;;;;;;7.57;4.20;;;;;;;24.36;28.30;98851.47;4991839;28;20498;-43
2023/12/04 11:15:23;;;;;;;6.40;4.00;;;;;;;24.39;28.08;98850.44;4993311;28;20030;-43
2023/12/04 11:17:49;;;;;;;7.30;4.00;;;;;;;24.41;28.11;98840.91;4993942;28;20422;-43
2023/12/04 11:20:17;;;;;;;7.63;4.30;;;;;;;24.42;27.91;98836.91;4989912;28;20015;-44
2023/12/04 11:22:43;;;;;;;7.65;3.80;;;;;;;24.44;27.56;98818.56;4990238;28;20117;-43
2023/12/04 11:25:08;;;;;;;7.32;4.40;;;;;;;24.47;27.48;98825.09;4992001;28;20101;-44
2023/12/04 11:27:34;;;;;;;6.40;4.15;;;;;;;24.50;27.45;98815.81;4996757;28;20048;-44